Aviation Digital Data Service (ADDS)

Output produced by METARs form (0714 UTC 30 August 2016)
found at http://aviationweather.gov/adds/metars/
 
KCDW 300653Z AUTO 07003KT 10SM CLR 18/16 A3016 RMK AO2 SLP218 T01830156 TSNO
KMMU 300655Z AUTO 00000KT 7SM CLR 14/14 A3016 RMK AO2
KFWN 300653Z AUTO 00000KT 10SM CLR 14/14 A3018 RMK AO2 SLP216 T01440139
KTEB 300651Z 36003KT 10SM CLR 22/14 A3014 RMK AO2 SLP205 T02170139
KTEB 300522Z 3006/3106 02007KT P6SM SKC 
     FM301200 04004KT P6SM FEW250 
     FM301400 VRB04KT P6SM FEW250 
     FM301900 18007KT P6SM FEW050 SCT250 
     FM310200 18005KT P6SM SCT250
       
KEWR 300651Z 01010KT 10SM FEW250 22/14 A3014 RMK AO2 SLP204 T02220144
KEWR 300522Z 3006/3112 02008KT P6SM FEW250 
     FM301200 04006KT P6SM FEW250 
     FM301600 08006KT P6SM FEW250 
     FM301800 15007KT P6SM FEW050 SCT250 
     FM310000 18007KT P6SM SCT250 
     FM310600 21005KT P6SM SCT250
       
KDXR 300653Z AUTO 00000KT 10SM CLR 15/13 A3018 RMK AO2 SLP217 T01500128
KHPN 300656Z 03006KT 10SM CLR 20/13 A3015 RMK AO2 SLP205 T02000128
KHPN 300522Z 3006/3106 01005KT P6SM SKC 
     FM301300 07004KT P6SM FEW250 
     FM301800 18007KT P6SM FEW050 SCT250 
     FM310100 VRB03KT P6SM SCT250 AMD NOT SKED
       
KABE 300651Z 00000KT 10SM CLR 17/14 A3016 RMK AO2 SLP212 T01670144
KABE 300537Z 3006/3106 VRB03KT P6SM SKC 
     FM301700 25004KT P6SM FEW050 
     FM310000 16003KT P6SM FEW200
       
KAVP 300654Z AUTO 11003KT 10SM CLR 16/13 A3019 RMK AO2 SLP216 T01560133
KAVP 300540Z 3006/3106 VRB03KT P6SM FEW250 
     TEMPO 3009/3013 3SM BR SCT008 
     FM301300 26005KT P6SM FEW250 
     FM310100 17004KT P6SM SCT200
       
KSWF 300545Z VRB04KT 10SM SKC 18/16 A3019
KSWF 300522Z 3006/3112 VRB03KT P6SM SKC 
     FM301800 26005KT P6SM FEW050 SCT250 
     FM310000 21004KT P6SM SCT250 AMD NOT SKED
       
KMSV 300655Z AUTO 00000KT 10SM CLR 13/12 A3021 RMK AO1
KPOU 300653Z AUTO 00000KT 10SM CLR 15/13 A3017 RMK AO2 SLP211 T01500133 $
KPOU 300541Z 3006/3106 11003KT P6SM SKC 
     TEMPO 3009/3012 2SM BR SCT003 
     FM301300 VRB03KT P6SM SCT250 
     FM310100 19004KT P6SM FEW250
       
KACY 300654Z 02004KT 10SM CLR 20/16 A3010 RMK AO2 SLP192 T02000161
KACY 300537Z 3006/3106 02005KT P6SM SKC 
     FM301500 09008KT P6SM SCT045 
     FM301700 12007KT P6SM BKN050 
     FM302200 13004KT P6SM FEW050
       
KGON 300656Z AUTO 01005KT 10SM CLR 17/14 A3015 RMK AO2 SLP211 T01720139
KGON 300522Z 3006/3106 03005KT P6SM SKC 
     FM301400 VRB05KT P6SM FEW250 
     FM301600 20008KT P6SM FEW050 SCT250 
     FM310100 VRB04KT P6SM SCT250
       


 (Extracted from FBUS31 KWNO 300203)
FD1US1
DATA BASED ON 300000Z    
VALID 300600Z   FOR USE 0200-0900Z. TEMPS NEG ABV 24000

FT  3000    6000    9000   12000   18000   24000  30000  34000  39000
BDL 0414 3106+11 2609+11 2811+06 2718-08 2921-21 273136 273346 284355
BGR 3518 3615+08 3019+07 3030+03 3042-11 3049-23 316337 317547 308259
CAR 3520 3322+07 3126+02 3132-01 3150-13 3156-24 316740 318449 308758
PWM 0317 0209+10 3017+09 2922+04 2938-10 2943-21 305436 305946 296558
EMI 0411 3011+15 2812+10 2506+07 2409-07 3113-18 312534 323243 303755
ACK 0215 3018+12 3311+12 3013+07 3017-08 3127-20 293835 293646 284756
BOS 0316 3207+11 2912+11 3016+06 2825-09 3030-21 294136 284246 284257
BML 3417 0105+09 2919+07 2826+04 2839-11 2947-21 305637 296547 296658
ACY 0712 2708+14 2714+11 2908+07 2106-06 2909-19 282335 283144 294154
ALB 0413 3205+11 2712+10 2615+06 2626-08 2827-21 273636 283846 284556
BUF 9900 3207+13 3112+10 3111+05 2721-09 2832-20 304734 305245 305657
JFK 0612 2711+13 2707+11 2806+07 2709-07 2914-20 283436 274145 294854
PLB 3107 2807+10 2918+07 2725+04 2737-10 2843-21 284937 285447 285458
SYR 0407 3408+12 3015+09 2715+05 2526-09 2631-21 294435 316045 295257
CLE 0509 3311+16 3513+10 3408+05 2614-08 3023-17 293533 294144 294455
CMH 0707 0205+17 3506+11 3009+05 2507-07 3212-17 301533 302243 312655
CVG 0912 9900+17 9900+11 9900+05 3505-07 3311-18 990032 301043 322154
AGC 0708 3006+16 2907+10 2810+06 2810-07 3018-18 322833 323044 313555
AVP 0412 9900+14 2806+11 2706+07 2415-07 2717-20 293536 314644 304655
PSB      2908+14 3008+10 2708+06 2614-07 3021-19 323534 313844 304356
ORF 0716 0714+16 0710+11 0907+07 1307-07 9900-18 350733 320942 271453
RIC 0514 0513+16 9900+11 9900+06 1305-07 0306-17 361233 321443 291653
ROA 1106 0609+16 0609+11 0806+06 1105-07 0307-18 031533 361343 321653
CRW 0614 9900+17 9900+12 9900+05 9900-07 0108-18 021332 351743 342054
EKN      9900+16 9900+11 2906+06 9900-07 3507-18 352033 332243 322755


 (Extracted from FBUS33 KWNO 300203)
FD3US3
DATA BASED ON 300000Z    
VALID 301200Z   FOR USE 0900-1800Z. TEMPS NEG ABV 24000

FT  3000    6000    9000   12000   18000   24000  30000  34000  39000
BDL 1706 3212+10 3217+09 2919+05 2732-08 2638-21 294236 294846 295358
BGR 2906 2916+08 3024+03 2932+02 2848-11 2855-23 284838 284948 275960
CAR 2908 3118+06 3127+00 3030-01 2946-14 2955-24 296440 297250 286959
PWM 9900 2908+08 3021+07 2929+04 2844-10 2753-22 284738 284847 285458
EMI 0408 3016+14 3116+09 3015+05 2817-07 2917-18 322734 313044 303755
ACK 9900 3412+11 2913+11 2914+05 2726-08 2733-21 273737 294046 284856
BOS 9900 3310+09 3019+09 2923+05 2736-09 2742-21 284437 294946 295557
BML 2912 2713+08 2920+05 3028+02 2845-11 2846-23 294138 284349 285359
ACY 1506 2609+13 2916+10 2915+06 2719-07 2919-18 312434 312844 303555
ALB 2105 3209+11 3118+08 3024+04 2834-09 2836-21 294536 295146 295257
BUF 9900 3311+14 3217+09 3119+03 2928-09 2837-20 294935 305945 306657
JFK 1310 3009+10 3115+10 2916+06 2623-08 2726-19 303334 303645 294656
PLB 2810 2914+08 3020+06 3027+01 2938-11 2937-22 294138 294748 295458
SYR 9900 3109+12 3317+08 3122+02 2933-09 2940-21 294436 295046 295557
CLE 0405 3613+16 3612+10 3407+03 2922-08 2724-18 303334 303544 284256
CMH 9900 3610+17 3510+10 3214+04 2915-07 2812-17 292133 301944 292755
CVG 0805 0307+17 3405+11 3306+04 3008-07 3308-17 260932 280843 311754
AGC 9900 3408+15 3211+10 3213+05 2821-07 2917-18 303133 323344 313555
AVP 1508 3406+12 3313+09 3015+05 2825-07 2829-20 303735 304045 295257
PSB      3110+13 3311+09 3114+05 2924-07 2825-18 303934 314344 314556
ORF 0811 1006+15 0507+10 0206+06 9900-08 9900-17 360533 340842 281254
RIC 0708 0807+15 0208+10 3306+05 9900-08 0206-17 021333 361343 341254
ROA 9900 1007+15 3608+10 3407+05 9900-08 0507-17 051333 021443 361354
CRW 9900 0505+17 3407+11 3210+05 3006-07 9900-17 350633 341543 331755
EKN      9900+15 3110+10 3115+04 2909-07 3206-17 331533 322344 322555